Main page
METAR-TAF:

METAR-TAF

Airports :

Humberside Airport

Humberside, England

latitude: 53-35N, longitude: 000-21W, elevation: 31 m

Current weather observation

The report was made 20 minutes ago, at 08:50 UTC
Wind 12 kt from the South/Southwest
Temperature 17°C
Humidity 77%
Pressure 1025 hPa
Visibility 10 km or more
Few clouds at a height of 2500 ft

METAR: EGNJ 210850Z 21012KT 9999 FEW025 17/13 Q1025

Time: 10:10 (09:10 UTC)

Forecast

The report was made 1 hour and 13 minutes ago, at 07:57 UTC
Forecast valid from 21 at 09 UTC to 21 at 18 UTC
Wind 10 kt from the South/Southwest
Visibility 10 km or more
Scattered clouds at a height of 2500 ft
Probability 30% :
Temporary
from 21 at 12 UTC to 21 at 15 UTC
Visibility: 7000 m
light rain showers

TAF: EGNJ 210757Z 2109/2118 21010KT 9999 SCT025 PROB30 TEMPO 2112/2115 7000 -SHRA

Weather observations and forecasts of more than 4000 airports (METAR and TAF reports).

The available stations are represented by yellow and red dots on the map.

Hover mouse over dot to see the name of the station.

Then click to see weather observations and forecasts.

To change the map : click on the green buttons with a black cross to zoom in, on the green button with a dash to zoom out, or on the green arrows for adjacent maps.


METAR-TAF: